Time;durP1;ratioP1;P1;durP2;ratioP2;P2;SDS_P1;SDS_P2;PMS_P1;PMS_P2;Temp;Humidity;BMP_temperature;BMP_pressure;BME280_temperature;BME280_humidity;BME280_pressure;Samples;Min_cycle;Max_cycle;Signal;HPM_P1;HPM_P2
2022/07/20 14:41:16;;;;;;;22.50;21.00;;;;;;;-141.02;45.26;79994.03;5153089;27;20557;-82
2022/07/20 14:43:43;;;;;;;22.58;21.08;;;;;;;-141.02;45.20;80063.91;5152159;27;20352;-86
2022/07/20 14:46:10;;;;;;;22.30;20.90;;;;;;;-141.02;45.29;80079.44;5150505;27;20192;-84
2022/07/20 14:48:38;;;;;;;21.35;19.95;;;;;;;-141.02;45.55;80110.50;5151944;27;20230;-78
2022/07/20 14:51:05;;;;;;;22.23;20.83;;;;;;;-141.02;46.30;80192.03;5150888;27;20231;-84
2022/07/20 14:53:32;;;;;;;21.67;20.27;;;;;;;-141.02;46.99;80291.00;5151337;27;20195;-80
2022/07/20 14:55:59;;;;;;;21.85;20.45;;;;;;;-141.02;46.63;80226.97;5150799;27;20282;-83
2022/07/20 14:58:27;;;;;;;21.50;20.10;;;;;;;-141.02;46.63;80219.19;5150629;27;20279;-84
2022/07/20 15:00:54;;;;;;;21.17;19.80;;;;;;;-141.02;46.15;80195.91;5150849;27;20218;-85
2022/07/20 15:03:21;;;;;;;21.38;19.98;;;;;;;-141.02;45.69;80127.97;5150835;27;20230;-84
2022/07/20 15:05:48;;;;;;;21.48;20.08;;;;;;;-141.02;46.34;80203.66;5150647;27;20187;-83
2022/07/20 15:08:15;;;;;;;20.90;19.52;;;;;;;-141.02;46.71;80277.41;5150586;27;20227;-82
2022/07/20 15:10:43;;;;;;;21.50;20.10;;;;;;;-141.02;47.05;80269.66;5150456;27;20235;-82
2022/07/20 15:13:10;;;;;;;21.55;20.15;;;;;;;-141.02;46.69;80261.91;5150434;27;20629;-82
2022/07/20 15:15:38;;;;;;;21.58;20.17;;;;;;;-141.02;47.84;80358.94;5150646;27;20274;-82
2022/07/20 15:18:05;;;;;;;21.63;20.23;;;;;;;-141.02;48.52;80054.22;5150395;27;20722;-83
2022/07/20 15:20:32;;;;;;;21.48;20.08;;;;;;;-141.02;48.26;80533.66;5150531;27;20228;-84
2022/07/20 15:22:59;;;;;;;21.15;19.85;;;;;;;-141.02;47.41;80358.94;5150565;27;20196;-84
2022/07/20 15:25:27;;;;;;;21.25;19.92;;;;;;;-141.02;48.29;80440.47;5150652;27;20202;-83
2022/07/20 15:27:54;;;;;;;22.05;20.65;;;;;;;-141.02;48.20;80428.81;5150433;27;20260;-79
2022/07/20 15:30:21;;;;;;;21.05;19.75;;;;;;;-141.02;48.39;80556.94;5150152;27;20311;-81
2022/07/20 15:32:49;;;;;;;21.38;19.98;;;;;;;-141.02;48.18;80223.06;5150607;27;20680;-82
2022/07/20 15:35:16;;;;;;;21.20;19.90;;;;;;;-141.02;47.86;80374.47;5150305;27;20287;-81
2022/07/20 15:37:43;;;;;;;21.80;20.40;;;;;;;-141.02;47.89;80407.47;5150489;27;20195;-81
2022/07/20 15:40:12;;;;;;;21.55;20.15;;;;;;;-141.02;47.59;80409.41;5147594;27;20292;-84
2022/07/20 15:42:39;;;;;;;21.73;20.33;;;;;;;-141.02;46.88;80622.94;5136664;27;20220;-84
2022/07/20 15:45:07;;;;;;;21.45;20.05;;;;;;;-141.02;46.33;80289.06;5136039;27;20287;-82
2022/07/20 15:47:35;;;;;;;21.42;20.02;;;;;;;-141.02;47.19;80335.66;5136019;27;20241;-85
2022/07/20 15:50:04;;;;;;;21.15;19.85;;;;;;;-141.02;48.19;80417.19;5136108;27;20292;-82
2022/07/20 15:52:31;;;;;;;21.40;19.90;;;;;;;-141.02;48.71;80479.28;5135956;27;20711;-83
2022/07/20 15:54:58;;;;;;;21.65;20.25;;;;;;;-141.02;48.84;80487.06;5136055;27;20271;-81
2022/07/20 15:57:26;;;;;;;21.55;20.15;;;;;;;-141.02;48.76;80473.47;5136352;27;20276;-82
2022/07/20 15:59:55;;;;;;;21.42;20.02;;;;;;;-141.02;47.68;80409.41;5135839;27;20200;-81
2022/07/20 16:02:23;;;;;;;20.95;19.55;;;;;;;-141.02;47.26;80335.66;5136194;27;20279;-83
2022/07/20 16:04:50;;;;;;;21.25;19.85;;;;;;;-141.02;47.14;80025.09;5135517;27;20250;-83
2022/07/20 16:07:20;;;;;;;21.60;20.20;;;;;;;-141.02;48.11;80436.59;5135856;27;20224;-83
2022/07/20 16:09:49;;;;;;;20.83;19.42;;;;;;;-141.02;49.22;80510.34;5135409;27;20230;-82
2022/07/20 16:12:17;;;;;;;19.92;18.52;;;;;;;-141.02;48.68;80502.59;5135769;27;20228;-83
2022/07/20 16:14:44;;;;;;;19.88;18.48;;;;;;;-141.02;49.22;80444.34;5135887;27;20196;-83
2022/07/20 16:17:12;;;;;;;19.98;18.58;;;;;;;-141.02;48.84;80512.28;5135929;27;20196;-83
2022/07/20 16:19:40;;;;;;;19.90;18.50;;;;;;;-141.02;49.28;80250.25;5135668;27;20232;-82
2022/07/20 16:22:10;;;;;;;20.15;18.75;;;;;;;-141.02;49.20;80335.66;5135516;27;20200;-81
2022/07/20 16:24:38;;;;;;;19.55;18.17;;;;;;;-141.02;48.75;80576.34;5135492;27;20669;-82
2022/07/20 16:27:05;;;;;;;19.90;18.50;;;;;;;-141.02;48.86;80537.53;5135705;27;20239;-83
2022/07/20 16:29:33;;;;;;;19.38;18.08;;;;;;;-141.02;48.93;80531.69;5135539;27;20267;-83
2022/07/20 16:32:00;;;;;;;19.50;18.15;;;;;;;-141.02;49.88;80599.66;5135435;27;20224;-84
2022/07/20 16:34:27;;;;;;;19.52;18.13;;;;;;;-141.02;49.55;80267.72;5135393;27;20261;-83
2022/07/20 16:36:54;;;;;;;20.90;19.48;;;;;;;-141.02;50.15;80607.41;5135180;27;20193;-82
2022/07/20 16:39:21;;;;;;;19.63;18.23;;;;;;;-141.02;50.06;80638.47;5134771;27;20228;-81
2022/07/20 16:41:50;;;;;;;19.77;18.48;;;;;;;-141.02;50.00;80384.19;5135209;27;20223;-84
2022/07/20 16:44:17;;;;;;;19.95;18.65;;;;;;;-141.02;50.50;80632.66;5134844;27;20196;-83
2022/07/20 16:46:44;;;;;;;19.85;18.45;;;;;;;-141.02;50.57;80702.53;5135097;27;20662;-83
2022/07/20 16:49:11;;;;;;;20.23;18.83;;;;;;;-141.02;50.96;80714.16;5134682;27;20192;-82
2022/07/20 16:51:38;;;;;;;20.48;19.08;;;;;;;-141.02;51.60;80776.28;5134648;27;20232;-81
2022/07/20 16:54:05;;;;;;;20.00;18.60;;;;;;;-141.02;51.95;80815.13;5134250;27;20192;-81
2022/07/20 16:56:32;;;;;;;20.05;18.65;;;;;;;-141.02;52.03;80836.47;5135047;27;20275;-81
2022/07/20 16:59:01;;;;;;;20.13;18.73;;;;;;;-141.02;52.48;80850.06;5134585;27;20721;-82
2022/07/20 17:01:28;;;;;;;19.83;18.42;;;;;;;-141.02;52.86;80881.13;5134832;27;20228;-82
2022/07/20 17:03:55;;;;;;;19.92;18.52;;;;;;;-141.02;53.28;80908.31;5134371;27;20290;-83
2022/07/20 17:06:22;;;;;;;20.20;18.80;;;;;;;-141.02;53.58;80898.59;5134347;27;20197;-82
2022/07/20 17:08:49;;;;;;;19.92;18.52;;;;;;;-141.02;53.40;80929.66;5134388;27;20680;-78
2022/07/20 17:11:16;;;;;;;20.08;18.58;;;;;;;-141.02;53.89;80937.41;5134655;27;20262;-82
2022/07/20 17:13:43;;;;;;;19.90;18.50;;;;;;;-141.02;53.81;80952.94;5135221;27;20592;-80
2022/07/20 17:16:12;;;;;;;20.15;18.75;;;;;;;-141.02;54.09;80720.00;5134577;27;20196;-81
2022/07/20 17:18:39;;;;;;;20.17;18.75;;;;;;;-141.02;54.37;80995.66;5134688;27;20677;-81
2022/07/20 17:21:06;;;;;;;20.52;19.02;;;;;;;-141.02;54.36;81053.91;5134159;27;20757;-83
2022/07/20 17:23:34;;;;;;;20.17;18.67;;;;;;;-141.02;54.69;81022.84;5134245;27;20669;-82
2022/07/20 17:26:01;;;;;;;20.10;18.70;;;;;;;-141.02;55.17;81057.78;5134743;27;20232;-81
2022/07/20 17:28:28;;;;;;;20.35;18.85;;;;;;;-141.02;55.18;81094.69;5134283;27;20279;-83
2022/07/20 17:30:55;;;;;;;20.10;18.70;;;;;;;-141.02;55.55;81079.16;5134840;27;20228;-82
2022/07/20 17:33:23;;;;;;;20.30;18.90;;;;;;;-141.02;55.54;81077.22;5134166;27;20195;-84
2022/07/20 17:35:50;;;;;;;20.33;18.83;;;;;;;-141.02;56.08;81108.28;5134611;27;20249;-83
2022/07/20 17:38:17;;;;;;;20.40;18.90;;;;;;;-141.02;56.18;81158.75;5134326;27;20283;-82
2022/07/20 17:40:44;;;;;;;21.00;19.50;;;;;;;-141.02;56.44;81141.28;5133777;27;20315;-80
2022/07/20 17:43:11;;;;;;;20.83;19.33;;;;;;;-141.02;56.56;81174.28;5134394;27;20192;-85
2022/07/20 17:45:41;;;;;;;20.83;19.42;;;;;;;-141.02;56.91;81162.63;5134461;27;20224;-87
2022/07/20 17:48:08;;;;;;;21.20;19.80;;;;;;;-141.02;56.45;81180.09;5133857;27;20257;-84
2022/07/20 17:50:36;;;;;;;22.05;20.55;;;;;;;-141.02;56.59;81185.94;5134145;27;20331;-82
2022/07/20 17:53:03;;;;;;;20.27;18.88;;;;;;;-141.02;56.30;81129.63;5134248;27;20643;-83
2022/07/20 17:55:30;;;;;;;20.52;19.02;;;;;;;-141.02;56.42;81185.94;5134238;27;20192;-84
2022/07/20 17:57:58;;;;;;;20.75;19.27;;;;;;;-141.02;56.41;81185.94;5134028;27;20193;-87
2022/07/20 18:00:25;;;;;;;21.42;19.92;;;;;;;-141.02;100.00;55844.97;5133957;27;20200;-82
2022/07/20 18:02:52;;;;;;;20.70;19.23;;;;;;;-141.02;100.00;55844.97;5134093;27;20196;-86
2022/07/20 18:05:19;;;;;;;21.17;19.67;;;;;;;-141.02;100.00;55844.97;5133540;27;20261;-86
2022/07/20 18:07:47;;;;;;;21.00;19.50;;;;;;;-141.02;100.00;55844.97;5133716;27;20228;-84
2022/07/20 18:10:14;;;;;;;21.25;19.75;;;;;;;-141.02;100.00;55844.97;5133762;27;20220;-85
2022/07/20 18:12:42;;;;;;;20.85;19.38;;;;;;;-141.02;56.15;81217.00;5133984;27;20235;-81
2022/07/20 18:15:10;;;;;;;21.33;19.83;;;;;;;-141.02;100.00;55844.97;5133737;27;20203;-82
2022/07/20 18:17:37;;;;;;;20.48;19.08;;;;;;;-141.02;100.00;55844.97;5133473;27;20235;-82
2022/07/20 18:20:05;;;;;;;20.65;19.25;;;;;;;-141.02;100.00;55844.97;5133512;27;20203;-86
2022/07/20 18:22:32;;;;;;;21.40;19.90;;;;;;;-141.02;100.00;55844.97;5133684;27;20220;-86
2022/07/20 18:25:00;;;;;;;21.58;20.08;;;;;;;-141.02;100.00;55844.97;5133682;27;20289;-83
2022/07/20 18:27:28;;;;;;;21.13;19.63;;;;;;;-141.02;100.00;55844.97;5133757;27;20236;-84
2022/07/20 18:29:55;;;;;;;20.88;19.38;;;;;;;-141.02;100.00;55844.97;5133822;28;20323;-86
2022/07/20 18:32:22;;;;;;;20.45;18.95;;;;;;;-141.02;100.00;55844.97;5133629;28;20199;-86
2022/07/20 18:34:49;;;;;;;21.27;19.77;;;;;;;-141.02;100.00;55844.97;5133658;28;20284;-87
2022/07/20 18:37:17;;;;;;;20.88;19.38;;;;;;;-141.02;100.00;55844.97;5133089;28;20192;-83
2022/07/20 18:39:44;;;;;;;20.83;19.33;;;;;;;-141.02;100.00;55844.97;5132969;28;20310;-84
2022/07/20 18:42:13;;;;;;;20.42;18.92;;;;;;;-141.02;100.00;55844.97;5133678;28;20192;-85
2022/07/20 18:44:40;;;;;;;20.02;18.52;;;;;;;-141.02;100.00;55844.97;5133272;28;20275;-86
2022/07/20 18:47:08;;;;;;;20.13;18.63;;;;;;;-141.02;100.00;55844.97;5133077;28;20291;-83
2022/07/20 18:49:36;;;;;;;20.60;19.10;;;;;;;-141.02;58.09;81337.38;5133231;28;20276;-81
2022/07/20 18:52:03;;;;;;;21.30;19.80;;;;;;;-141.02;58.67;81356.78;5132669;28;20697;-82
2022/07/20 18:54:30;;;;;;;20.98;19.48;;;;;;;-141.02;58.74;81356.78;5133001;28;20672;-82
2022/07/20 18:56:57;;;;;;;21.25;19.75;;;;;;;-141.02;58.53;81356.78;5132975;27;20279;-81
2022/07/20 18:59:26;;;;;;;20.92;19.42;;;;;;;-141.02;58.88;81413.09;5132895;28;20255;-82
2022/07/20 19:01:53;;;;;;;21.45;19.85;;;;;;;-141.02;59.12;81401.44;5132796;28;20280;-78
2022/07/20 19:04:21;;;;;;;20.35;18.85;;;;;;;-141.02;59.40;81086.91;5132747;28;20196;-80
2022/07/20 19:06:48;;;;;;;21.90;20.30;;;;;;;-141.02;59.65;81432.50;5133081;28;20197;-83
2022/07/20 19:09:15;;;;;;;21.83;20.23;;;;;;;-141.02;59.36;81444.16;5132660;28;20689;-81
2022/07/20 19:11:43;;;;;;;21.40;19.80;;;;;;;-141.02;59.57;81426.69;5132895;28;20599;-80
2022/07/20 19:14:10;;;;;;;21.67;20.08;;;;;;;-141.02;100.00;55844.97;5132660;27;20684;-81
2022/07/20 19:16:39;;;;;;;21.15;19.65;;;;;;;-141.02;100.00;55844.97;5134733;27;20235;-80
2022/07/20 19:19:06;;;;;;;22.90;21.30;;;;;;;-141.02;100.00;55844.97;5136495;27;20661;-82
2022/07/20 19:21:33;;;;;;;22.60;21.00;;;;;;;-141.02;100.00;55844.97;5136686;27;20192;-81
2022/07/20 19:24:00;;;;;;;21.95;20.45;;;;;;;-141.02;100.00;55844.97;5136422;27;20199;-84
2022/07/20 19:26:27;;;;;;;21.63;20.13;;;;;;;-141.02;100.00;55844.97;5136315;27;20235;-82
2022/07/20 19:28:55;;;;;;;22.33;20.83;;;;;;;-141.02;100.00;55844.97;5136587;27;20245;-86
2022/07/20 19:31:22;;;;;;;21.05;19.55;;;;;;;-141.02;100.00;55844.97;5136119;27;20342;-86
2022/07/20 19:33:50;;;;;;;20.60;19.20;;;;;;;-141.02;100.00;55844.97;5136135;27;20238;-82
2022/07/20 19:36:17;;;;;;;20.65;19.25;;;;;;;-141.02;100.00;55844.97;5137057;27;20235;-83
2022/07/20 19:38:44;;;;;;;21.55;20.15;;;;;;;-141.02;100.00;55844.97;5136443;27;20227;-82
2022/07/20 19:41:12;;;;;;;22.67;21.17;;;;;;;-141.02;100.00;55844.97;5135945;27;20277;-81
2022/07/20 19:43:39;;;;;;;22.15;20.65;;;;;;;-141.02;100.00;55844.97;5136050;27;20234;-83
2022/07/20 19:46:08;;;;;;;22.35;20.88;;;;;;;-141.02;100.00;55844.97;5136251;27;20242;-84
2022/07/20 19:48:35;;;;;;;21.67;20.27;;;;;;;-141.02;100.00;55844.97;5135973;27;20209;-81
2022/07/20 19:51:04;;;;;;;21.30;19.90;;;;;;;-141.02;100.00;55844.97;5135840;27;20244;-82
2022/07/20 19:53:31;;;;;;;21.60;20.10;;;;;;;-141.02;100.00;55844.97;5135883;27;20228;-82
2022/07/20 19:55:59;;;;;;;21.52;20.13;;;;;;;-141.02;100.00;55844.97;5136137;27;20227;-80
2022/07/20 19:58:26;;;;;;;21.27;19.88;;;;;;;-141.02;100.00;55844.97;5135731;27;20442;-82
2022/07/20 20:00:53;;;;;;;20.75;19.35;;;;;;;-141.02;100.00;55844.97;5136278;27;20275;-82
2022/07/20 20:03:20;;;;;;;21.23;19.83;;;;;;;-141.02;100.00;55844.97;5135908;27;20228;-80
2022/07/20 20:05:47;;;;;;;20.52;19.13;;;;;;;-141.02;100.00;55844.97;5135658;27;20657;-79
2022/07/20 20:08:16;;;;;;;20.80;19.40;;;;;;;-141.02;100.00;55844.97;5135588;27;20744;-81
2022/07/20 20:10:43;;;;;;;21.73;20.23;;;;;;;-141.02;100.00;55844.97;5135548;27;20592;-83
2022/07/20 20:13:10;;;;;;;20.45;19.05;;;;;;;-141.02;100.00;55844.97;5135570;27;20218;-83
2022/07/20 20:15:37;;;;;;;20.65;19.25;;;;;;;-141.02;100.00;55844.97;5135441;27;20250;-82
2022/07/20 20:18:05;;;;;;;20.60;19.20;;;;;;;-141.02;100.00;55844.97;5135700;27;20196;-82
2022/07/20 20:20:32;;;;;;;20.75;19.45;;;;;;;-141.02;100.00;55844.97;5135618;27;20189;-82
2022/07/20 20:22:59;;;;;;;21.42;20.02;;;;;;;-141.02;100.00;55844.97;5135412;27;20651;-81
2022/07/20 20:25:27;;;;;;;21.15;19.75;;;;;;;-141.02;100.00;55844.97;5135275;27;20229;-81
2022/07/20 20:27:55;;;;;;;21.17;19.77;;;;;;;-141.02;100.00;55844.97;5135124;27;20231;-82
2022/07/20 20:30:22;;;;;;;20.77;19.45;;;;;;;-141.02;100.00;55844.97;5135696;27;20231;-81
2022/07/20 20:32:49;;;;;;;20.67;19.27;;;;;;;-141.02;100.00;55844.97;5135038;27;20624;-78
2022/07/20 20:35:16;;;;;;;21.15;19.85;;;;;;;-141.02;100.00;55844.97;5135028;27;20197;-81
2022/07/20 20:37:43;;;;;;;20.90;19.50;;;;;;;-141.02;100.00;55844.97;5134938;27;20189;-86
2022/07/20 20:40:11;;;;;;;21.23;19.83;;;;;;;-141.02;100.00;55844.97;5135251;27;20261;-80
2022/07/20 20:42:39;;;;;;;21.40;20.00;;;;;;;-141.02;100.00;55844.97;5134921;27;20231;-79
2022/07/20 20:45:07;;;;;;;20.80;19.40;;;;;;;-141.02;100.00;55844.97;5135461;27;20650;-82
2022/07/20 20:47:34;;;;;;;21.05;19.65;;;;;;;-141.02;100.00;55844.97;5135709;27;20227;-83
2022/07/20 20:50:01;;;;;;;21.17;19.77;;;;;;;-141.02;100.00;55844.97;5134882;27;20228;-84
2022/07/20 20:52:28;;;;;;;21.08;19.67;;;;;;;-141.02;100.00;55844.97;5134682;27;20253;-82
2022/07/20 20:54:55;;;;;;;21.17;19.77;;;;;;;-141.02;100.00;55844.97;5134619;27;20287;-82
2022/07/20 20:57:23;;;;;;;21.70;20.30;;;;;;;-141.02;100.00;55844.97;5134863;27;20249;-82
2022/07/20 20:59:51;;;;;;;22.02;20.63;;;;;;;-141.02;100.00;55844.97;5134914;27;20268;-82
2022/07/20 21:02:18;;;;;;;21.90;20.50;;;;;;;-141.02;100.00;55844.97;5134524;27;20232;-81
2022/07/20 21:04:46;;;;;;;21.45;20.05;;;;;;;-141.02;100.00;55844.97;5135055;27;20590;-85
2022/07/20 21:07:15;;;;;;;20.92;19.63;;;;;;;-141.02;100.00;55844.97;5134639;27;20196;-83
2022/07/20 21:09:43;;;;;;;21.35;20.05;;;;;;;-141.02;100.00;55844.97;5134446;27;20199;-81
2022/07/20 21:12:10;;;;;;;21.25;19.85;;;;;;;-141.02;100.00;55844.97;5134371;27;20721;-81
2022/07/20 21:14:37;;;;;;;21.63;20.27;;;;;;;-141.02;100.00;55844.97;5134578;27;20568;-82
2022/07/20 21:17:05;;;;;;;21.10;19.80;;;;;;;-141.02;100.00;55844.97;5134447;27;20272;-84
2022/07/20 21:19:32;;;;;;;21.65;20.25;;;;;;;-141.02;100.00;55844.97;5134045;27;20587;-83
2022/07/20 21:21:59;;;;;;;21.27;19.88;;;;;;;-141.02;100.00;55844.97;5134151;27;20232;-81
2022/07/20 21:24:26;;;;;;;22.13;20.63;;;;;;;-141.02;100.00;55844.97;5134284;27;20192;-83
2022/07/20 21:26:54;;;;;;;21.75;20.35;;;;;;;-141.02;100.00;55844.97;5133958;27;20654;-81
2022/07/20 21:29:21;;;;;;;21.30;20.00;;;;;;;-141.02;100.00;55844.97;5133932;27;20195;-81
2022/07/20 21:31:48;;;;;;;21.27;19.88;;;;;;;-141.02;100.00;55844.97;5133914;27;20224;-79
2022/07/20 21:34:16;;;;;;;21.27;19.98;;;;;;;-141.02;100.00;55844.97;5133779;27;20279;-82
2022/07/20 21:36:43;;;;;;;21.30;20.00;;;;;;;-141.02;100.00;55844.97;5133837;27;20224;-82
2022/07/20 21:39:11;;;;;;;21.38;20.08;;;;;;;-141.02;100.00;55844.97;5133278;27;20297;-82
2022/07/20 21:41:38;;;;;;;21.70;20.40;;;;;;;-141.02;100.00;55844.97;5134622;27;20189;-82
2022/07/20 21:44:05;;;;;;;21.55;20.15;;;;;;;-141.02;100.00;55844.97;5133701;27;20279;-81
2022/07/20 21:46:32;;;;;;;20.95;19.65;;;;;;;-141.02;100.00;55844.97;5133553;27;20678;-81
2022/07/20 21:48:59;;;;;;;20.90;19.60;;;;;;;-141.02;100.00;55844.97;5133596;27;20279;-82
2022/07/20 21:51:28;;;;;;;20.75;19.45;;;;;;;-141.02;100.00;55844.97;5133534;27;20281;-79
2022/07/20 21:53:55;;;;;;;20.80;19.50;;;;;;;-141.02;100.00;55844.97;5133856;27;20637;-81
2022/07/20 21:56:22;;;;;;;20.45;19.15;;;;;;;-141.02;100.00;55844.97;5133510;27;20232;-81
2022/07/20 21:58:49;;;;;;;21.27;19.98;;;;;;;-141.02;100.00;55844.97;5133441;27;20204;-82
2022/07/20 22:01:17;;;;;;;21.02;19.73;;;;;;;-141.02;100.00;55844.97;5133738;27;20200;-81
2022/07/20 22:03:44;;;;;;;21.30;20.00;;;;;;;-141.02;100.00;55844.97;5133328;27;20193;-85
2022/07/20 22:06:12;;;;;;;20.85;19.55;;;;;;;-141.02;100.00;55844.97;5133305;27;20290;-82
2022/07/20 22:08:40;;;;;;;21.13;19.83;;;;;;;-141.02;100.00;55844.97;5133698;27;20307;-80
2022/07/20 22:11:07;;;;;;;20.92;19.63;;;;;;;-141.02;100.00;55844.97;5133851;27;20279;-81
2022/07/20 22:13:35;;;;;;;20.70;19.40;;;;;;;-141.02;100.00;55844.97;5133286;27;20189;-81
2022/07/20 22:16:03;;;;;;;20.85;19.55;;;;;;;-141.02;100.00;55844.97;5133852;27;20612;-83
2022/07/20 22:18:30;;;;;;;20.83;19.52;;;;;;;-141.02;100.00;55844.97;5133679;27;20232;-81
2022/07/20 22:20:57;;;;;;;21.00;19.70;;;;;;;-141.02;100.00;55844.97;5133761;27;20197;-81
2022/07/20 22:23:24;;;;;;;21.25;19.95;;;;;;;-141.02;100.00;55844.97;5133379;27;20721;-81
2022/07/20 22:25:53;;;;;;;21.13;19.83;;;;;;;-141.02;100.00;55844.97;5133125;27;20196;-82
2022/07/20 22:28:20;;;;;;;20.98;19.67;;;;;;;-141.02;100.00;55844.97;5133124;27;20188;-83
2022/07/20 22:30:47;;;;;;;21.33;20.02;;;;;;;-141.02;100.00;55844.97;5133424;27;20718;-82
2022/07/20 22:33:15;;;;;;;21.27;19.98;;;;;;;-141.02;100.00;55844.97;5133304;28;20196;-83
2022/07/20 22:35:42;;;;;;;21.42;20.02;;;;;;;-141.02;100.00;55844.97;5132993;28;20196;-83
2022/07/20 22:38:10;;;;;;;20.63;19.33;;;;;;;-141.02;100.00;55844.97;5133338;27;20196;-81
2022/07/20 22:40:37;;;;;;;21.63;20.23;;;;;;;-141.02;100.00;55844.97;5132868;28;20783;-81
2022/07/20 22:43:06;;;;;;;21.10;19.80;;;;;;;-141.02;100.00;55844.97;5132971;28;20192;-82
2022/07/20 22:45:33;;;;;;;21.15;19.85;;;;;;;-141.02;100.00;55844.97;5132923;27;20192;-81
2022/07/20 22:48:00;;;;;;;21.08;19.77;;;;;;;-141.02;100.00;55844.97;5132857;28;20661;-79
2022/07/20 22:50:27;;;;;;;20.85;19.55;;;;;;;-141.02;100.00;55844.97;5133503;27;20223;-82
2022/07/20 22:52:54;;;;;;;21.10;19.80;;;;;;;-141.02;100.00;55844.97;5136923;27;20228;-81
2022/07/20 22:55:21;;;;;;;21.20;19.90;;;;;;;-141.02;100.00;55844.97;5137299;27;20192;-82
2022/07/20 22:57:48;;;;;;;21.17;19.88;;;;;;;-141.02;100.00;55844.97;5136950;27;20194;-81
2022/07/20 23:00:20;;;;;;;20.67;19.38;;;;;;;-141.02;100.00;55844.97;5137155;27;20193;-82
2022/07/20 23:02:49;;;;;;;20.73;19.42;;;;;;;-141.02;100.00;55844.97;5137964;27;20197;-81
2022/07/20 23:05:16;;;;;;;20.55;19.30;;;;;;;-141.02;100.00;55844.97;5136820;27;20203;-82
2022/07/20 23:07:47;;;;;;;21.20;19.90;;;;;;;-141.02;100.00;55844.97;5136718;27;20189;-80
2022/07/20 23:10:16;;;;;;;20.95;19.65;;;;;;;-141.02;100.00;55844.97;5136941;27;20237;-82
2022/07/20 23:12:44;;;;;;;21.45;20.15;;;;;;;-141.02;100.00;55844.97;5137253;27;20281;-82
2022/07/20 23:15:12;;;;;;;21.20;19.90;;;;;;;-141.02;100.00;55844.97;5136826;27;20228;-81
2022/07/20 23:17:40;;;;;;;20.45;19.15;;;;;;;-141.02;100.00;55844.97;5136572;27;20196;-82
2022/07/20 23:20:10;;;;;;;20.67;19.40;;;;;;;-141.02;100.00;55844.97;5136673;27;20358;-83
2022/07/20 23:22:37;;;;;;;20.65;19.35;;;;;;;-141.02;100.00;55844.97;5136486;27;20189;-81
2022/07/20 23:25:06;;;;;;;20.90;19.60;;;;;;;-141.02;100.00;55844.97;5136669;27;20188;-83
2022/07/20 23:27:33;;;;;;;20.48;19.17;;;;;;;-141.02;100.00;55844.97;5136599;27;20203;-82
2022/07/20 23:30:00;;;;;;;20.17;18.98;;;;;;;-141.02;100.00;55844.97;5136308;27;20224;-81
2022/07/20 23:32:28;;;;;;;19.70;18.50;;;;;;;-141.02;100.00;55844.97;5136348;27;20713;-81
2022/07/20 23:34:56;;;;;;;19.92;18.73;;;;;;;-141.02;100.00;55844.97;5136191;27;20566;-83
2022/07/20 23:37:23;;;;;;;19.60;18.40;;;;;;;-141.02;100.00;55844.97;5136123;27;20192;-81
2022/07/20 23:39:51;;;;;;;20.48;19.17;;;;;;;-141.02;100.00;55844.97;5135883;27;20270;-83
2022/07/20 23:42:18;;;;;;;19.80;18.52;;;;;;;-141.02;100.00;55844.97;5136087;27;20203;-81
2022/07/20 23:44:45;;;;;;;20.35;19.10;;;;;;;-141.02;100.00;55844.97;5136390;27;20221;-81
2022/07/20 23:47:12;;;;;;;20.35;19.05;;;;;;;-141.02;100.00;55844.97;5136604;27;20234;-82
2022/07/20 23:49:41;;;;;;;20.25;19.02;;;;;;;-141.02;100.00;55844.97;5136554;27;20241;-81
2022/07/20 23:52:10;;;;;;;20.35;19.05;;;;;;;-141.02;100.00;55844.97;5135813;27;20228;-83
2022/07/20 23:54:38;;;;;;;20.05;18.85;;;;;;;-141.02;100.00;55844.97;5136016;27;20192;-81
2022/07/20 23:57:05;;;;;;;20.92;19.63;;;;;;;-141.02;100.00;55844.97;5135910;27;20207;-82
2022/07/20 23:59:32;;;;;;;20.75;19.45;;;;;;;-141.02;100.00;55844.97;5135900;27;20685;-80
